Time;durP1;ratioP1;P1;durP2;ratioP2;P2;SDS_P1;SDS_P2;PMS_P1;PMS_P2;Temp;Humidity;BMP_temperature;BMP_pressure;BME280_temperature;BME280_humidity;BME280_pressure;Samples;Min_cycle;Max_cycle;Signal;HPM_P1;HPM_P2
2022/07/16 00:02:52;;;;;;;6.78;4.85;;;;;;;;;;10354667;28;20399;-83
2022/07/16 00:07:54;;;;;;;5.90;4.78;;;;;;;;;;10369425;28;20993;-82
2022/07/16 00:12:57;;;;;;;7.07;4.97;;;;;;;;;;10389304;28;20398;-82
2022/07/16 00:23:15;;;;;;;5.63;4.65;;;;;;;;;;10383824;28;20750;-83
2022/07/16 00:28:18;;;;;;;6.30;4.70;;;;;;;;;;10398089;28;20476;-83
2022/07/16 00:33:20;;;;;;;7.05;5.00;;;;;;;;;;10389979;28;20504;-83
2022/07/16 00:38:22;;;;;;;6.35;5.00;;;;;;;;;;10383323;28;20607;-82
2022/07/16 00:43:25;;;;;;;5.43;4.93;;;;;;;;;;10391173;28;20567;-83
2022/07/16 00:48:27;;;;;;;5.88;5.10;;;;;;;;;;10389323;28;20398;-82
2022/07/16 00:53:28;;;;;;;5.45;4.95;;;;;;;;;;10388464;28;20492;-83
2022/07/16 00:58:32;;;;;;;7.20;5.30;;;;;;;;;;10387582;28;20508;-83
2022/07/16 01:03:35;;;;;;;6.07;5.45;;;;;;;;;;10384754;28;20393;-83
2022/07/16 01:08:39;;;;;;;7.35;5.82;;;;;;;;;;10384228;28;20405;-82
2022/07/16 01:13:44;;;;;;;8.10;6.20;;;;;;;;;;10392259;28;20524;-82
2022/07/16 01:18:47;;;;;;;6.88;6.18;;;;;;;;;;10390852;28;20516;-82
2022/07/16 01:23:50;;;;;;;6.90;6.22;;;;;;;;;;10389887;28;20409;-82
2022/07/16 01:28:52;;;;;;;7.03;6.40;;;;;;;;;;10391215;28;20397;-83
2022/07/16 01:39:11;;;;;;;6.97;6.28;;;;;;;;;;10384293;28;20428;-82
2022/07/16 01:44:13;;;;;;;6.70;6.10;;;;;;;;;;10390701;28;20833;-83
2022/07/16 01:49:15;;;;;;;6.70;6.10;;;;;;;;;;10394011;28;20538;-83
2022/07/16 01:54:18;;;;;;;8.85;6.47;;;;;;;;;;10375756;28;20881;-82
2022/07/16 01:59:20;;;;;;;6.57;6.07;;;;;;;;;;10381920;28;20915;-82
2022/07/16 02:04:22;;;;;;;6.55;5.85;;;;;;;;;;10375276;28;20493;-83
2022/07/16 02:09:25;;;;;;;6.55;5.95;;;;;;;;;;10374092;28;20768;-82
2022/07/16 02:14:27;;;;;;;6.65;6.05;;;;;;;;;;10374944;28;20486;-83
2022/07/16 02:19:29;;;;;;;6.63;6.03;;;;;;;;;;10372036;28;20516;-81
2022/07/16 02:24:32;;;;;;;8.48;6.40;;;;;;;;;;10364229;28;20404;-81
2022/07/16 02:29:34;;;;;;;7.00;6.25;;;;;;;;;;10374103;28;20482;-83
2022/07/16 02:34:36;;;;;;;7.25;6.38;;;;;;;;;;10376828;28;20482;-82
2022/07/16 02:39:39;;;;;;;7.22;6.53;;;;;;;;;;10373039;28;20429;-82
2022/07/16 02:44:41;;;;;;;6.97;6.28;;;;;;;;;;10377705;28;20924;-83
2022/07/16 02:49:42;;;;;;;7.07;6.38;;;;;;;;;;10373866;28;20494;-81
2022/07/16 02:54:46;;;;;;;6.90;6.20;;;;;;;;;;10376123;28;20489;-82
2022/07/16 02:59:47;;;;;;;6.72;5.70;;;;;;;;;;10372440;28;20513;-82
2022/07/16 03:04:50;;;;;;;6.10;5.40;;;;;;;;;;10373256;28;20486;-81
2022/07/16 03:09:53;;;;;;;6.03;4.70;;;;;;;;;;10372583;28;20455;-81
2022/07/16 03:14:55;;;;;;;6.37;5.17;;;;;;;;;;10376365;28;20528;-83
2022/07/16 03:19:57;;;;;;;5.28;4.45;;;;;;;;;;10375119;28;20703;-82
2022/07/16 03:25:00;;;;;;;5.82;4.70;;;;;;;;;;10370241;28;20528;-83
2022/07/16 03:30:02;;;;;;;4.72;4.32;;;;;;;;;;10369348;28;20456;-82
2022/07/16 03:35:06;;;;;;;6.10;4.60;;;;;;;;;;10371792;28;20496;-81
2022/07/16 03:40:10;;;;;;;5.20;4.20;;;;;;;;;;10369875;28;20874;-82
2022/07/16 03:45:12;;;;;;;6.67;4.47;;;;;;;;;;10367716;28;20399;-85
2022/07/16 03:50:15;;;;;;;6.00;4.70;;;;;;;;;;10372474;28;20504;-84
2022/07/16 03:55:18;;;;;;;5.65;4.90;;;;;;;;;;10365687;28;21362;-84
2022/07/16 04:00:20;;;;;;;5.28;4.75;;;;;;;;;;10367787;28;20415;-85
2022/07/16 04:05:22;;;;;;;5.78;4.68;;;;;;;;;;10366341;28;20431;-84
2022/07/16 04:10:25;;;;;;;5.63;5.07;;;;;;;;;;10364140;28;20785;-85
2022/07/16 04:15:27;;;;;;;5.18;4.65;;;;;;;;;;10348156;28;20428;-84
2022/07/16 04:20:29;;;;;;;5.65;4.47;;;;;;;;;;10377113;28;20956;-83
2022/07/16 04:25:32;;;;;;;6.55;4.70;;;;;;;;;;10382262;28;20772;-84
2022/07/16 04:30:34;;;;;;;5.25;4.75;;;;;;;;;;10386423;28;20464;-83
2022/07/16 04:35:36;;;;;;;5.25;4.72;;;;;;;;;;10385866;28;20420;-83
2022/07/16 04:40:40;;;;;;;7.10;5.30;;;;;;;;;;10376096;28;20415;-84
2022/07/16 04:45:41;;;;;;;6.15;5.55;;;;;;;;;;10383832;28;20492;-84
2022/07/16 04:50:43;;;;;;;6.10;5.50;;;;;;;;;;10352912;28;20501;-84
2022/07/16 04:55:46;;;;;;;7.57;5.60;;;;;;;;;;10374849;28;20836;-83
2022/07/16 05:00:48;;;;;;;7.93;5.88;;;;;;;;;;10385192;28;20440;-83
2022/07/16 05:05:50;;;;;;;6.63;6.03;;;;;;;;;;10390165;28;20496;-82
2022/07/16 05:10:53;;;;;;;7.15;6.13;;;;;;;;;;10385210;28;20409;-84
2022/07/16 05:15:55;;;;;;;6.30;5.63;;;;;;;;;;10385401;28;20424;-84
2022/07/16 05:20:57;;;;;;;6.53;5.40;;;;;;;;;;10388133;28;20484;-85
2022/07/16 05:26:00;;;;;;;5.83;5.33;;;;;;;;;;10387524;28;20963;-84
2022/07/16 05:31:02;;;;;;;5.67;5.07;;;;;;;;;;10391089;28;20405;-84
2022/07/16 05:36:04;;;;;;;6.53;5.40;;;;;;;;;;10391106;28;20849;-84
2022/07/16 05:41:07;;;;;;;5.78;5.30;;;;;;;;;;10391945;28;20405;-84
2022/07/16 05:46:09;;;;;;;6.13;5.53;;;;;;;;;;10395659;28;20440;-84
2022/07/16 05:51:11;;;;;;;5.82;5.30;;;;;;;;;;10390018;28;20407;-84
2022/07/16 05:56:14;;;;;;;6.27;5.67;;;;;;;;;;10391272;28;20508;-85
2022/07/16 06:01:16;;;;;;;5.55;5.00;;;;;;;;;;10392049;28;20893;-85
2022/07/16 06:06:17;;;;;;;5.40;4.90;;;;;;;;;;10383593;28;20500;-84
2022/07/16 06:11:21;;;;;;;5.38;4.88;;;;;;;;;;10395006;28;20496;-83
2022/07/16 06:16:23;;;;;;;5.17;4.77;;;;;;;;;;10389500;28;20508;-84
2022/07/16 06:21:24;;;;;;;5.07;4.57;;;;;;;;;;10384672;28;20895;-84
2022/07/16 06:26:28;;;;;;;6.97;4.50;;;;;;;;;;10392688;28;20484;-84
2022/07/16 06:31:29;;;;;;;4.57;4.18;;;;;;;;;;10376795;28;20419;-83
2022/07/16 06:36:31;;;;;;;5.38;4.43;;;;;;;;;;10362560;28;20439;-84
2022/07/16 06:41:36;;;;;;;4.93;4.50;;;;;;;;;;10373176;28;20429;-88
2022/07/16 06:46:38;;;;;;;5.83;4.90;;;;;;;;;;10383367;28;20908;-80
2022/07/16 06:51:40;;;;;;;4.97;4.50;;;;;;;;;;10384033;28;20415;-84
2022/07/16 06:56:43;;;;;;;4.95;4.53;;;;;;;;;;10385204;28;20420;-84
2022/07/16 07:01:45;;;;;;;4.95;4.55;;;;;;;;;;10379194;28;20964;-84
2022/07/16 07:06:46;;;;;;;4.85;4.35;;;;;;;;;;10381307;28;20757;-84
2022/07/16 07:11:50;;;;;;;5.00;4.50;;;;;;;;;;10385132;28;20981;-84
2022/07/16 07:16:51;;;;;;;5.50;4.75;;;;;;;;;;10389043;28;20844;-83
2022/07/16 07:21:53;;;;;;;5.63;4.70;;;;;;;;;;10381661;28;20893;-84
2022/07/16 07:26:56;;;;;;;5.70;4.15;;;;;;;;;;10376332;28;20854;-84
2022/07/16 07:31:58;;;;;;;6.70;4.72;;;;;;;;;;10353439;28;20412;-84
2022/07/16 07:37:00;;;;;;;4.50;4.10;;;;;;;;;;10358931;28;20549;-84
2022/07/16 07:42:04;;;;;;;4.28;3.88;;;;;;;;;;10350620;28;20413;-83
2022/07/16 07:47:06;;;;;;;4.47;4.07;;;;;;;;;;10332774;28;20554;-82
2022/07/16 07:52:08;;;;;;;4.73;4.03;;;;;;;;;;10355824;28;20500;-82
2022/07/16 07:57:11;;;;;;;4.30;3.90;;;;;;;;;;10367730;28;20434;-83
2022/07/16 08:02:13;;;;;;;4.20;3.80;;;;;;;;;;10370101;28;21101;-82
2022/07/16 08:07:15;;;;;;;4.57;4.18;;;;;;;;;;10368143;28;20417;-83
2022/07/16 08:12:18;;;;;;;4.10;3.80;;;;;;;;;;10369579;28;20495;-83
2022/07/16 08:17:20;;;;;;;4.57;4.10;;;;;;;;;;10366821;28;20512;-84
2022/07/16 08:22:22;;;;;;;4.30;3.90;;;;;;;;;;10365127;28;20415;-83
2022/07/16 08:27:25;;;;;;;4.10;3.70;;;;;;;;;;10364355;28;20413;-84
2022/07/16 08:32:27;;;;;;;3.70;3.40;;;;;;;;;;10368816;28;20405;-84
2022/07/16 08:37:35;;;;;;;3.70;3.40;;;;;;;;;;10371430;28;20517;-83
2022/07/16 08:42:39;;;;;;;4.25;3.80;;;;;;;;;;10370345;28;20508;-83
2022/07/16 08:47:41;;;;;;;4.47;3.87;;;;;;;;;;10369715;28;20417;-82
2022/07/16 08:52:47;;;;;;;5.78;4.30;;;;;;;;;;10370570;28;20414;-91
2022/07/16 08:58:01;;;;;;;3.70;3.40;;;;;;;;;;10399782;28;20482;-92
2022/07/16 09:03:07;;;;;;;3.95;3.58;;;;;;;;;;10383504;28;21830;-94
2022/07/16 09:08:21;;;;;;;4.38;3.90;;;;;;;;;;10368965;28;20455;-93
2022/07/16 09:13:24;;;;;;;4.68;3.70;;;;;;;;;;10374893;28;20419;-94
2022/07/16 09:18:43;;;;;;;4.03;3.63;;;;;;;;;;10370612;28;20423;-95
2022/07/16 09:23:45;;;;;;;4.65;4.20;;;;;;;;;;10372331;28;20415;-93
2022/07/16 09:29:13;;;;;;;5.13;3.40;;;;;;;;;;10376427;28;20891;-93
2022/07/16 09:34:24;;;;;;;3.88;3.38;;;;;;;;;;10278498;28;20422;-94
2022/07/16 09:39:26;;;;;;;3.92;3.63;;;;;;;;;;10281852;28;20454;-94
2022/07/16 09:44:32;;;;;;;7.00;4.50;;;;;;;;;;10276268;28;21015;-83
2022/07/16 09:49:37;;;;;;;5.30;3.70;;;;;;;;;;10307576;28;20496;-83
2022/07/16 09:54:39;;;;;;;4.15;3.80;;;;;;;;;;10356978;28;20453;-83
2022/07/16 09:59:44;;;;;;;5.60;4.00;;;;;;;;;;10369388;28;20514;-84
2022/07/16 10:04:45;;;;;;;4.10;3.80;;;;;;;;;;10372242;28;20403;-85
2022/07/16 10:09:48;;;;;;;4.20;3.80;;;;;;;;;;10372803;28;20491;-83
2022/07/16 10:14:54;;;;;;;4.77;3.67;;;;;;;;;;10368629;28;20822;-76
2022/07/16 10:19:58;;;;;;;3.70;3.40;;;;;;;;;;10376673;28;20424;-78
2022/07/16 10:25:00;;;;;;;5.65;3.20;;;;;;;;;;10373295;28;20413;-83
2022/07/16 10:30:16;;;;;;;3.30;3.03;;;;;;;;;;10359245;28;20429;-84
2022/07/16 10:35:29;;;;;;;19.83;15.20;;;;;;;;;;10360010;28;20482;-88
2022/07/16 10:40:31;;;;;;;3.78;3.10;;;;;;;;;;10359338;28;20426;-76
2022/07/16 10:45:54;;;;;;;9.47;8.33;;;;;;;;;;10361153;28;20407;-84
2022/07/16 10:51:13;;;;;;;4.57;3.30;;;;;;;;;;10355961;28;20430;-78
2022/07/16 10:56:34;;;;;;;17.60;8.43;;;;;;;;;;10379580;28;20411;-84
2022/07/16 11:01:39;;;;;;;3.35;3.03;;;;;;;;;;10384435;28;20427;-84
2022/07/16 11:06:42;;;;;;;3.53;3.20;;;;;;;;;;10381542;28;20528;-83
2022/07/16 11:11:44;;;;;;;3.63;3.17;;;;;;;;;;10389281;28;20468;-83
2022/07/16 11:16:51;;;;;;;3.67;3.10;;;;;;;;;;10388490;28;20834;-83
2022/07/16 11:21:57;;;;;;;5.13;3.20;;;;;;;;;;10386993;28;20439;-84
2022/07/16 11:27:00;;;;;;;3.08;2.80;;;;;;;;;;10376880;28;20536;-84
2022/07/16 11:32:06;;;;;;;3.93;3.17;;;;;;;;;;10366629;28;20438;-83
2022/07/16 11:37:07;;;;;;;3.08;2.88;;;;;;;;;;10366506;28;20405;-83
2022/07/16 11:42:10;;;;;;;3.00;2.80;;;;;;;;;;10360131;28;21308;-86
2022/07/16 11:47:13;;;;;;;3.30;3.00;;;;;;;;;;10370608;28;20423;-84
2022/07/16 11:52:24;;;;;;;3.13;2.88;;;;;;;;;;10368372;28;20824;-85
2022/07/16 11:57:26;;;;;;;3.60;3.10;;;;;;;;;;10377504;28;20479;-87
2022/07/16 12:02:43;;;;;;;3.17;2.80;;;;;;;;;;10370265;28;20427;-87
2022/07/16 12:07:45;;;;;;;3.57;2.87;;;;;;;;;;10375799;28;20508;-86
2022/07/16 12:12:47;;;;;;;3.73;2.90;;;;;;;;;;10373806;28;20419;-82
2022/07/16 12:17:50;;;;;;;5.60;2.90;;;;;;;;;;10380525;28;21436;-82
2022/07/16 12:22:54;;;;;;;3.20;2.90;;;;;;;;;;10376285;28;20401;-83
2022/07/16 12:27:58;;;;;;;3.88;3.30;;;;;;;;;;10380020;28;20502;-83
2022/07/16 12:33:03;;;;;;;3.25;2.80;;;;;;;;;;10369774;28;20926;-87
2022/07/16 12:38:05;;;;;;;3.13;2.90;;;;;;;;;;10389043;28;20417;-86
2022/07/16 12:43:07;;;;;;;3.28;3.00;;;;;;;;;;10380803;28;20422;-87
2022/07/16 12:48:10;;;;;;;3.88;3.28;;;;;;;;;;10389468;28;20417;-87
2022/07/16 12:53:12;;;;;;;3.80;3.10;;;;;;;;;;10382480;28;20785;-86
2022/07/16 13:03:34;;;;;;;3.67;2.97;;;;;;;;;;10374852;28;20389;-89
2022/07/16 13:08:36;;;;;;;3.20;3.00;;;;;;;;;;10379366;28;20504;-92
2022/07/16 13:13:39;;;;;;;4.10;2.90;;;;;;;;;;10383230;28;20407;-84
2022/07/16 13:18:42;;;;;;;4.97;3.07;;;;;;;;;;10386651;28;20421;-85
2022/07/16 13:23:45;;;;;;;3.42;3.20;;;;;;;;;;10385827;28;20493;-84
2022/07/16 13:28:47;;;;;;;2.97;2.70;;;;;;;;;;10383320;28;20870;-84
2022/07/16 13:33:51;;;;;;;3.38;3.08;;;;;;;;;;10373144;28;20409;-92
2022/07/16 13:38:53;;;;;;;3.37;3.07;;;;;;;;;;10361797;28;20478;-85
2022/07/16 13:43:54;;;;;;;3.07;2.87;;;;;;;;;;10366456;28;20417;-86
2022/07/16 13:48:58;;;;;;;3.57;3.20;;;;;;;;;;10367845;28;20508;-85
2022/07/16 13:53:59;;;;;;;3.70;3.40;;;;;;;;;;10364130;28;20437;-85
2022/07/16 13:59:01;;;;;;;3.47;3.17;;;;;;;;;;10368056;28;20429;-86
2022/07/16 14:04:06;;;;;;;3.27;3.03;;;;;;;;;;10361911;28;20421;-85
2022/07/16 14:09:08;;;;;;;3.75;3.45;;;;;;;;;;10362416;28;20822;-86
2022/07/16 14:14:09;;;;;;;3.90;3.10;;;;;;;;;;10359477;28;20419;-86
2022/07/16 14:19:13;;;;;;;3.13;2.90;;;;;;;;;;10356985;28;20939;-85
2022/07/16 14:24:15;;;;;;;3.23;2.93;;;;;;;;;;10356856;28;20431;-86
2022/07/16 14:29:17;;;;;;;3.70;2.90;;;;;;;;;;10355448;28;20507;-86
2022/07/16 14:34:20;;;;;;;4.07;3.17;;;;;;;;;;10346683;28;20891;-85
2022/07/16 14:39:22;;;;;;;4.40;3.05;;;;;;;;;;10362291;28;20433;-86
2022/07/16 14:44:23;;;;;;;3.30;3.00;;;;;;;;;;10373441;28;20975;-86
2022/07/16 14:49:27;;;;;;;3.88;3.30;;;;;;;;;;10374204;28;20413;-85
2022/07/16 14:54:28;;;;;;;4.80;3.17;;;;;;;;;;10369883;28;20512;-85
2022/07/16 14:59:30;;;;;;;4.55;3.40;;;;;;;;;;10374422;28;20427;-85
2022/07/16 15:04:36;;;;;;;5.45;3.40;;;;;;;;;;10363999;28;20519;-86
2022/07/16 15:09:38;;;;;;;6.43;3.47;;;;;;;;;;10351532;28;20470;-86
2022/07/16 15:14:40;;;;;;;3.88;3.42;;;;;;;;;;10348697;28;20817;-85
2022/07/16 15:19:44;;;;;;;4.97;3.70;;;;;;;;;;10350014;28;20430;-88
2022/07/16 15:24:46;;;;;;;4.43;3.40;;;;;;;;;;10352699;28;20491;-86
2022/07/16 15:29:48;;;;;;;4.40;3.22;;;;;;;;;;10364400;28;21469;-90
2022/07/16 15:34:51;;;;;;;5.67;3.60;;;;;;;;;;10366246;28;20847;-86
2022/07/16 15:39:56;;;;;;;4.20;3.58;;;;;;;;;;10370154;28;20899;-86
2022/07/16 15:44:58;;;;;;;4.70;3.55;;;;;;;;;;10364900;28;20424;-87
2022/07/16 15:50:02;;;;;;;5.07;3.60;;;;;;;;;;10362344;28;20453;-86
2022/07/16 15:55:04;;;;;;;3.78;3.47;;;;;;;;;;10370273;28;20503;-87
2022/07/16 16:00:08;;;;;;;4.28;3.50;;;;;;;;;;10381199;28;20429;-88
2022/07/16 16:05:11;;;;;;;4.60;3.60;;;;;;;;;;10380445;28;20409;-86
2022/07/16 16:10:14;;;;;;;4.88;3.70;;;;;;;;;;10375944;28;20426;-86
2022/07/16 16:15:17;;;;;;;4.40;3.50;;;;;;;;;;10373022;28;20421;-86
2022/07/16 16:20:22;;;;;;;4.10;3.70;;;;;;;;;;10352388;28;20432;-87
2022/07/16 16:25:24;;;;;;;5.25;3.53;;;;;;;;;;10357159;28;20419;-87
2022/07/16 16:30:26;;;;;;;4.72;3.95;;;;;;;;;;10361120;28;20408;-86
2022/07/16 16:35:30;;;;;;;4.47;3.60;;;;;;;;;;10363892;28;20492;-86
2022/07/16 16:40:32;;;;;;;4.10;3.30;;;;;;;;;;10368366;28;20429;-86
2022/07/16 16:45:34;;;;;;;4.70;3.78;;;;;;;;;;10362893;28;20487;-88
2022/07/16 16:50:37;;;;;;;5.07;3.50;;;;;;;;;;10363121;28;20844;-85
2022/07/16 16:55:39;;;;;;;4.07;3.50;;;;;;;;;;10361981;28;20829;-85
2022/07/16 17:00:41;;;;;;;4.75;4.05;;;;;;;;;;10370309;28;20518;-88
2022/07/16 17:05:45;;;;;;;4.57;3.73;;;;;;;;;;10369340;28;20408;-88
2022/07/16 17:10:47;;;;;;;5.23;4.10;;;;;;;;;;10376266;28;20442;-88
2022/07/16 17:15:49;;;;;;;4.15;3.70;;;;;;;;;;10364358;28;20423;-89
2022/07/16 17:20:52;;;;;;;3.83;3.53;;;;;;;;;;10367020;28;21345;-79
2022/07/16 17:25:54;;;;;;;4.20;3.73;;;;;;;;;;10369794;28;20503;-91
2022/07/16 17:30:56;;;;;;;5.20;3.72;;;;;;;;;;10361796;28;20417;-90
2022/07/16 17:35:59;;;;;;;3.70;3.40;;;;;;;;;;10351300;28;20485;-90
2022/07/16 17:41:02;;;;;;;3.70;3.40;;;;;;;;;;10365104;28;20793;-77
2022/07/16 17:46:04;;;;;;;5.32;3.28;;;;;;;;;;10356168;28;20464;-92
2022/07/16 17:51:08;;;;;;;3.85;3.45;;;;;;;;;;10365861;28;20437;-91
2022/07/16 17:56:10;;;;;;;4.00;3.17;;;;;;;;;;10377601;28;20469;-90
2022/07/16 18:01:12;;;;;;;4.70;3.40;;;;;;;;;;10386751;28;20421;-90
2022/07/16 18:06:15;;;;;;;4.43;3.17;;;;;;;;;;10384342;28;21272;-90
2022/07/16 18:11:17;;;;;;;4.30;3.27;;;;;;;;;;10380369;28;20497;-89
2022/07/16 18:16:19;;;;;;;3.40;3.10;;;;;;;;;;10390656;28;20503;-89
2022/07/16 18:21:23;;;;;;;3.42;3.10;;;;;;;;;;10381413;28;20668;-90
2022/07/16 18:26:24;;;;;;;3.40;3.10;;;;;;;;;;10384970;28;20621;-89
2022/07/16 18:31:27;;;;;;;3.20;2.90;;;;;;;;;;10380815;28;20421;-90
2022/07/16 18:36:30;;;;;;;3.53;3.00;;;;;;;;;;10389369;28;20420;-91
2022/07/16 18:41:33;;;;;;;4.85;3.13;;;;;;;;;;10387163;28;20534;-88
2022/07/16 18:46:34;;;;;;;3.55;3.25;;;;;;;;;;10396594;28;20448;-90
2022/07/16 18:51:40;;;;;;;6.28;3.25;;;;;;;;;;10389878;28;20413;-89
2022/07/16 18:56:42;;;;;;;4.67;3.33;;;;;;;;;;10385873;28;20409;-90
2022/07/16 19:01:44;;;;;;;4.45;3.10;;;;;;;;;;10377732;28;20513;-89
2022/07/16 19:06:47;;;;;;;3.33;3.03;;;;;;;;;;10376519;28;20497;-88
2022/07/16 19:11:49;;;;;;;4.75;3.40;;;;;;;;;;10381603;28;20488;-90
2022/07/16 19:16:51;;;;;;;5.17;3.73;;;;;;;;;;10387530;28;20444;-89
2022/07/16 19:21:54;;;;;;;4.70;3.60;;;;;;;;;;10382634;28;20614;-88
2022/07/16 19:26:56;;;;;;;5.38;3.50;;;;;;;;;;10389607;28;20405;-90
2022/07/16 19:31:59;;;;;;;4.00;3.60;;;;;;;;;;10377677;28;20489;-90
2022/07/16 19:37:02;;;;;;;4.80;3.90;;;;;;;;;;10378839;28;20888;-89
2022/07/16 19:42:04;;;;;;;5.15;3.60;;;;;;;;;;10382708;28;20734;-89
2022/07/16 19:47:06;;;;;;;5.93;3.97;;;;;;;;;;10380265;28;20441;-89
2022/07/16 19:52:09;;;;;;;6.50;3.88;;;;;;;;;;10382706;28;20588;-89
2022/07/16 20:02:27;;;;;;;6.50;4.57;;;;;;;;;;10360677;28;20414;-90
2022/07/16 20:07:30;;;;;;;7.05;5.25;;;;;;;;;;10378559;28;20877;-89
2022/07/16 20:12:33;;;;;;;5.35;4.85;;;;;;;;;;10378803;28;20488;-90
2022/07/16 20:17:34;;;;;;;6.35;4.60;;;;;;;;;;10384368;28;20419;-89
2022/07/16 20:22:38;;;;;;;5.30;4.70;;;;;;;;;;10381630;28;20409;-90
2022/07/16 20:27:41;;;;;;;8.97;4.60;;;;;;;;;;10379523;28;20496;-90
2022/07/16 20:32:44;;;;;;;6.22;4.55;;;;;;;;;;10391441;28;20410;-88
2022/07/16 20:37:48;;;;;;;7.50;5.13;;;;;;;;;;10376903;28;20505;-91
2022/07/16 20:42:49;;;;;;;7.50;5.30;;;;;;;;;;10385701;28;20423;-90
2022/07/16 20:47:51;;;;;;;6.18;5.57;;;;;;;;;;10388341;28;20963;-90
2022/07/16 20:52:55;;;;;;;8.50;5.40;;;;;;;;;;10387467;28;20497;-89
2022/07/16 20:57:57;;;;;;;8.25;5.72;;;;;;;;;;10389353;28;20401;-89
2022/07/16 21:02:59;;;;;;;6.83;5.33;;;;;;;;;;10384451;28;21010;-90
2022/07/16 21:08:02;;;;;;;5.97;5.18;;;;;;;;;;10381533;28;20513;-88
2022/07/16 21:13:04;;;;;;;6.80;5.85;;;;;;;;;;10382580;28;20529;-89
2022/07/16 21:18:06;;;;;;;7.80;5.50;;;;;;;;;;10388297;28;20437;-90
2022/07/16 21:23:09;;;;;;;5.70;5.20;;;;;;;;;;10383021;28;20772;-90
2022/07/16 21:28:11;;;;;;;6.35;4.88;;;;;;;;;;10384891;28;20449;-88
2022/07/16 21:33:13;;;;;;;6.37;4.90;;;;;;;;;;10387829;28;20405;-89
2022/07/16 21:38:16;;;;;;;7.20;5.10;;;;;;;;;;10376687;28;20443;-89
2022/07/16 21:43:18;;;;;;;6.38;4.50;;;;;;;;;;10385740;28;20502;-84
2022/07/16 21:48:20;;;;;;;6.97;5.10;;;;;;;;;;10381620;28;20427;-84
2022/07/16 21:53:23;;;;;;;7.75;5.43;;;;;;;;;;10376840;28;20424;-85
2022/07/16 21:58:25;;;;;;;7.97;6.00;;;;;;;;;;10385047;28;20399;-87
2022/07/16 22:03:27;;;;;;;9.55;6.60;;;;;;;;;;10369779;28;20536;-87
2022/07/16 22:08:30;;;;;;;9.17;7.30;;;;;;;;;;10357471;28;20427;-88
2022/07/16 22:13:32;;;;;;;10.30;7.80;;;;;;;;;;10359486;28;20747;-87
2022/07/16 22:20:51;;;;;;;9.20;8.30;;;;;;;;;;10358765;28;20914;-87
2022/07/16 22:23:58;;;;;;;10.47;8.57;;;;;;;;;;10364559;28;20707;-87
2022/07/16 22:29:00;;;;;;;10.20;8.93;;;;;;;;;;10384619;28;20439;-88
2022/07/16 22:34:01;;;;;;;9.40;8.50;;;;;;;;;;10376204;28;20834;-88
2022/07/16 22:39:05;;;;;;;11.45;9.07;;;;;;;;;;10361072;28;20420;-87
2022/07/16 22:44:06;;;;;;;10.43;9.27;;;;;;;;;;10376838;28;20501;-89
2022/07/16 22:49:09;;;;;;;10.15;9.15;;;;;;;;;;10369700;28;20889;-87
2022/07/16 22:54:13;;;;;;;9.73;8.77;;;;;;;;;;10366442;28;20415;-87
2022/07/16 22:59:15;;;;;;;9.30;8.40;;;;;;;;;;10365084;28;20781;-90
2022/07/16 23:04:17;;;;;;;9.70;8.40;;;;;;;;;;10368540;28;20408;-87
2022/07/16 23:09:20;;;;;;;10.18;9.18;;;;;;;;;;10357276;28;20855;-83
2022/07/16 23:14:22;;;;;;;12.40;11.13;;;;;;;;;;10366858;28;20971;-90
2022/07/16 23:19:24;;;;;;;11.13;10.02;;;;;;;;;;10360462;28;20408;-88
2022/07/16 23:24:27;;;;;;;11.43;9.87;;;;;;;;;;10378018;22;20441;-86
2022/07/16 23:29:29;;;;;;;9.77;8.77;;;;;;;;;;10391977;28;20887;-84
2022/07/16 23:34:31;;;;;;;9.50;8.57;;;;;;;;;;10383088;28;20481;-85
2022/07/16 23:39:34;;;;;;;9.13;8.32;;;;;;;;;;10379515;28;20407;-86
2022/07/16 23:44:36;;;;;;;10.75;8.32;;;;;;;;;;10389561;28;20488;-85
2022/07/16 23:49:38;;;;;;;9.30;8.40;;;;;;;;;;10383994;28;21063;-85
2022/07/16 23:54:41;;;;;;;9.00;8.10;;;;;;;;;;10391151;28;20420;-85
2022/07/16 23:59:43;;;;;;;8.88;7.53;;;;;;;;;;10388361;28;20438;-86
